Time,TemperatureF,DewpointF,PressureIn,WindDirection,WindDirectionDegrees,WindSpeedMPH,WindSpeedGustMPH,Humidity,HourlyPrecipIn,Conditions,Clouds,dailyrainin,SoftwareType,DateUTC
2013-12-25 00:01:00,27.4,16.9,30.14,West,281,0.0,3.0,64,0.00,,,0.00,WeatherCatV1.22B15,2013-12-25 05:01:00,
2013-12-25 00:06:00,27.4,17.2,30.14,West,277,1.0,3.0,65,0.00,,,0.00,WeatherCatV1.22B15,2013-12-25 05:06:00,
2013-12-25 00:11:00,27.3,17.5,30.14,West,264,2.0,6.0,66,0.00,,,0.00,WeatherCatV1.22B15,2013-12-25 05:11:00,
2013-12-25 00:16:00,27.2,18.1,30.14,West,270,0.0,5.0,68,0.00,,,0.00,WeatherCatV1.22B15,2013-12-25 05:16:00,
2013-12-25 00:21:00,27.0,18.2,30.14,WNW,288,1.0,4.0,69,0.00,,,0.00,WeatherCatV1.22B15,2013-12-25 05:21:00,
2013-12-25 00:26:00,27.0,18.2,30.14,WNW,288,0.0,2.0,69,0.00,,,0.00,WeatherCatV1.22B15,2013-12-25 05:26:00,
2013-12-25 00:31:00,26.9,18.1,30.14,West,263,2.0,3.0,69,0.00,,,0.00,WeatherCatV1.22B15,2013-12-25 05:31:00,
2013-12-25 00:36:00,26.8,17.3,30.14,West,263,0.0,6.0,67,0.00,,,0.00,WeatherCatV1.22B15,2013-12-25 05:36:00,
2013-12-25 00:41:00,26.7,16.5,30.15,West,270,1.0,5.0,65,0.00,,,0.00,WeatherCatV1.22B15,2013-12-25 05:41:00,
2013-12-25 00:46:00,26.5,15.6,30.15,West,264,3.0,5.0,63,0.00,,,0.00,WeatherCatV1.22B15,2013-12-25 05:46:00,
2013-12-25 00:51:00,26.3,13.2,30.15,West,281,0.0,6.0,57,0.00,,,0.00,WeatherCatV1.22B15,2013-12-25 05:51:00,
2013-12-25 00:56:00,26.1,12.6,30.15,West,279,1.0,12.0,56,0.00,,,0.00,WeatherCatV1.22B15,2013-12-25 05:56:00,
2013-12-25 01:01:00,25.9,12.8,30.15,NNW,338,1.0,4.0,57,0.00,,,0.00,WeatherCatV1.22B15,2013-12-25 06:01:00,
2013-12-25 01:06:00,25.8,12.7,30.16,WSW,242,6.0,7.0,57,0.00,,,0.00,WeatherCatV1.22B15,2013-12-25 06:06:00,
2013-12-25 01:11:00,25.6,12.5,30.16,NW,306,5.0,11.0,57,0.00,,,0.00,WeatherCatV1.22B15,2013-12-25 06:11:00,
2013-12-25 01:16:00,25.5,12.8,30.16,NW,307,1.0,4.0,58,0.00,,,0.00,WeatherCatV1.22B15,2013-12-25 06:16:00,
2013-12-25 01:21:00,25.4,12.7,30.16,SW,218,2.0,6.0,58,0.00,,,0.00,WeatherCatV1.22B15,2013-12-25 06:21:00,
2013-12-25 01:26:00,25.3,13.0,30.16,WNW,290,0.0,3.0,59,0.00,,,0.00,WeatherCatV1.22B15,2013-12-25 06:26:00,
2013-12-25 01:31:00,25.2,12.9,30.16,West,278,0.0,2.0,59,0.00,,,0.00,WeatherCatV1.22B15,2013-12-25 06:31:00,
2013-12-25 01:36:00,25.1,13.2,30.17,NW,307,0.0,2.0,60,0.00,,,0.00,WeatherCatV1.22B15,2013-12-25 06:36:00,
2013-12-25 01:41:00,25.1,13.6,30.17,West,273,2.0,7.0,61,0.00,,,0.00,WeatherCatV1.22B15,2013-12-25 06:41:00,
2013-12-25 01:46:00,25.0,13.5,30.17,West,274,1.0,3.0,61,0.00,,,0.00,WeatherCatV1.22B15,2013-12-25 06:46:00,
2013-12-25 01:51:00,24.9,13.0,30.18,WSW,247,1.0,3.0,60,0.00,,,0.00,WeatherCatV1.22B15,2013-12-25 06:51:00,
2013-12-25 01:56:00,24.8,13.3,30.18,NW,307,1.0,5.0,61,0.00,,,0.00,WeatherCatV1.22B15,2013-12-25 06:56:00,
2013-12-25 02:01:00,24.8,13.7,30.19,NNW,329,1.0,2.0,62,0.00,,,0.00,WeatherCatV1.22B15,2013-12-25 07:01:00,
2013-12-25 02:06:00,24.7,13.2,30.19,NW,309,1.0,4.0,61,0.00,,,0.00,WeatherCatV1.22B15,2013-12-25 07:06:00,
2013-12-25 02:11:00,24.6,13.1,30.19,NW,321,2.0,5.0,61,0.00,,,0.00,WeatherCatV1.22B15,2013-12-25 07:11:00,
2013-12-25 02:16:00,24.4,12.9,30.19,West,271,0.0,7.0,61,0.00,,,0.00,WeatherCatV1.22B15,2013-12-25 07:16:00,
2013-12-25 02:20:00,24.2,12.4,30.20,West,267,5.0,6.0,60,0.00,,,0.00,WeatherCatV1.22B15,2013-12-25 07:20:00,
2013-12-25 02:25:00,23.8,12.3,30.20,WSW,238,4.0,6.0,61,0.00,,,0.00,WeatherCatV1.22B15,2013-12-25 07:25:00,
2013-12-25 02:30:00,23.6,12.1,30.20,South,182,2.0,7.0,61,0.00,,,0.00,WeatherCatV1.22B15,2013-12-25 07:30:00,
2013-12-25 02:35:00,23.4,12.0,30.21,NW,314,3.0,7.0,61,0.00,,,0.00,WeatherCatV1.22B15,2013-12-25 07:35:00,
2013-12-25 02:40:00,23.3,12.2,30.21,West,279,2.0,2.0,62,0.00,,,0.00,WeatherCatV1.22B15,2013-12-25 07:40:00,
2013-12-25 02:45:00,23.1,12.4,30.21,West,279,0.0,3.0,63,0.00,,,0.00,WeatherCatV1.22B15,2013-12-25 07:45:00,
2013-12-25 02:50:00,22.9,11.9,30.22,WNW,290,6.0,7.0,62,0.00,,,0.00,WeatherCatV1.22B15,2013-12-25 07:50:00,
2013-12-25 02:55:00,22.7,12.0,30.22,West,272,3.0,3.0,63,0.00,,,0.00,WeatherCatV1.22B15,2013-12-25 07:55:00,
2013-12-25 03:00:00,22.5,11.1,30.21,WSW,244,0.0,8.0,61,0.00,,,0.00,WeatherCatV1.22B15,2013-12-25 08:00:00,
2013-12-25 03:05:00,22.4,11.4,30.22,WNW,284,1.0,7.0,62,0.00,,,0.00,WeatherCatV1.22B15,2013-12-25 08:05:00,
2013-12-25 03:10:00,22.3,11.6,30.22,West,269,3.0,5.0,63,0.00,,,0.00,WeatherCatV1.22B15,2013-12-25 08:10:00,
2013-12-25 03:15:00,22.2,11.6,30.22,West,268,5.0,9.0,63,0.00,,,0.00,WeatherCatV1.22B15,2013-12-25 08:15:00,
2013-12-25 03:20:00,22.1,11.8,30.22,West,265,2.0,3.0,64,0.00,,,0.00,WeatherCatV1.22B15,2013-12-25 08:20:00,
2013-12-25 03:25:00,22.0,11.7,30.23,West,265,6.0,7.0,64,0.00,,,0.00,WeatherCatV1.22B15,2013-12-25 08:25:00,
2013-12-25 03:30:00,21.8,11.5,30.23,WSW,254,1.0,10.0,64,0.00,,,0.00,WeatherCatV1.22B15,2013-12-25 08:30:00,
2013-12-25 03:35:00,21.8,11.5,30.23,West,279,0.0,3.0,64,0.00,,,0.00,WeatherCatV1.22B15,2013-12-25 08:35:00,
2013-12-25 03:40:00,21.7,11.4,30.23,West,265,1.0,3.0,64,0.00,,,0.00,WeatherCatV1.22B15,2013-12-25 08:40:00,
2013-12-25 03:45:00,21.6,11.3,30.23,West,259,1.0,4.0,64,0.00,,,0.00,WeatherCatV1.22B15,2013-12-25 08:45:00,
2013-12-25 03:50:00,21.5,10.5,30.23,West,269,2.0,4.0,62,0.00,,,0.00,WeatherCatV1.22B15,2013-12-25 08:50:00,
2013-12-25 03:55:00,21.5,10.9,30.23,NNW,333,2.0,3.0,63,0.00,,,0.00,WeatherCatV1.22B15,2013-12-25 08:55:00,
2013-12-25 04:00:00,21.3,10.0,30.24,West,279,1.0,2.0,61,0.00,,,0.00,WeatherCatV1.22B15,2013-12-25 09:00:00,
2013-12-25 04:05:00,21.3,9.6,30.24,West,279,3.0,6.0,60,0.00,,,0.00,WeatherCatV1.22B15,2013-12-25 09:05:00,
2013-12-25 04:10:00,21.1,9.4,30.24,West,263,0.0,3.0,60,0.00,,,0.00,WeatherCatV1.22B15,2013-12-25 09:10:00,
2013-12-25 04:15:00,21.1,9.4,30.24,WSW,245,4.0,4.0,60,0.00,,,0.00,WeatherCatV1.22B15,2013-12-25 09:15:00,
2013-12-25 04:20:00,21.0,9.3,30.25,West,260,3.0,5.0,60,0.00,,,0.00,WeatherCatV1.22B15,2013-12-25 09:20:00,
2013-12-25 04:25:00,21.0,8.9,30.25,WSW,254,2.0,4.0,59,0.00,,,0.00,WeatherCatV1.22B15,2013-12-25 09:25:00,
2013-12-25 04:30:00,20.9,8.9,30.25,West,267,1.0,4.0,59,0.00,,,0.00,WeatherCatV1.22B15,2013-12-25 09:30:00,
2013-12-25 04:35:00,20.9,8.9,30.26,West,271,1.0,2.0,59,0.00,,,0.00,WeatherCatV1.22B15,2013-12-25 09:35:00,
2013-12-25 04:40:00,20.9,9.6,30.26,North,350,1.0,1.0,61,0.00,,,0.00,WeatherCatV1.22B15,2013-12-25 09:40:00,
2013-12-25 04:45:00,21.0,9.3,30.26,West,276,2.0,3.0,60,0.00,,,0.00,WeatherCatV1.22B15,2013-12-25 09:45:00,
2013-12-25 04:50:00,20.9,9.2,30.26,West,260,1.0,4.0,60,0.00,,,0.00,WeatherCatV1.22B15,2013-12-25 09:50:00,
2013-12-25 04:55:00,20.8,9.1,30.26,WSW,249,0.0,3.0,60,0.00,,,0.00,WeatherCatV1.22B15,2013-12-25 09:55:00,
2013-12-25 05:00:00,20.7,9.0,30.26,WSW,252,2.0,6.0,60,0.00,,,0.00,WeatherCatV1.22B15,2013-12-25 10:00:00,
2013-12-25 05:05:00,20.5,8.9,30.27,West,264,0.0,7.0,60,0.00,,,0.00,WeatherCatV1.22B15,2013-12-25 10:05:00,
2013-12-25 05:10:00,20.4,9.1,30.27,South,179,0.0,2.0,61,0.00,,,0.00,WeatherCatV1.22B15,2013-12-25 10:10:00,
2013-12-25 05:15:00,20.5,9.6,30.28,SW,231,0.0,2.0,62,0.00,,,0.00,WeatherCatV1.22B15,2013-12-25 10:15:00,
2013-12-25 05:20:00,20.5,9.2,30.28,WNW,292,0.0,2.0,61,0.00,,,0.00,WeatherCatV1.22B15,2013-12-25 10:20:00,
2013-12-25 05:25:00,20.4,9.5,30.28,NW,322,0.0,5.0,62,0.00,,,0.00,WeatherCatV1.22B15,2013-12-25 10:25:00,
2013-12-25 05:30:00,20.1,9.2,30.28,NW,324,0.0,3.0,62,0.00,,,0.00,WeatherCatV1.22B15,2013-12-25 10:30:00,
2013-12-25 05:35:00,19.7,8.8,30.29,NW,316,0.0,4.0,62,0.00,,,0.00,WeatherCatV1.22B15,2013-12-25 10:35:00,
2013-12-25 05:40:00,19.3,8.4,30.30,ESE,105,2.0,5.0,62,0.00,,,0.00,WeatherCatV1.22B15,2013-12-25 10:40:00,
2013-12-25 05:45:00,19.0,8.9,30.30,West,259,0.0,3.0,64,0.00,,,0.00,WeatherCatV1.22B15,2013-12-25 10:45:00,
2013-12-25 05:50:00,18.9,8.8,30.30,South,175,1.0,3.0,64,0.00,,,0.00,WeatherCatV1.22B15,2013-12-25 10:50:00,
2013-12-25 05:55:00,18.7,8.6,30.30,WNW,286,0.0,3.0,64,0.00,,,0.00,WeatherCatV1.22B15,2013-12-25 10:55:00,
2013-12-25 06:00:00,18.5,8.4,30.31,WSW,249,0.0,4.0,64,0.00,,,0.00,WeatherCatV1.22B15,2013-12-25 11:00:00,
2013-12-25 06:05:00,18.2,7.8,30.32,SE,146,3.0,6.0,63,0.00,,,0.00,WeatherCatV1.22B15,2013-12-25 11:05:00,
2013-12-25 06:10:00,18.0,7.6,30.32,NW,313,5.0,5.0,63,0.00,,,0.00,WeatherCatV1.22B15,2013-12-25 11:10:00,
2013-12-25 06:15:00,17.8,7.0,30.32,West,281,1.0,4.0,62,0.00,,,0.00,WeatherCatV1.22B15,2013-12-25 11:15:00,
2013-12-25 06:20:00,17.6,6.1,30.32,WNW,293,3.0,5.0,60,0.00,,,0.00,WeatherCatV1.22B15,2013-12-25 11:20:00,
2013-12-25 06:25:00,17.4,5.9,30.33,North,350,2.0,8.0,60,0.00,,,0.00,WeatherCatV1.22B15,2013-12-25 11:25:00,
2013-12-25 06:30:00,17.2,5.0,30.33,NW,317,1.0,8.0,58,0.00,,,0.00,WeatherCatV1.22B15,2013-12-25 11:30:00,
2013-12-25 06:35:00,17.0,5.2,30.34,NNW,335,0.0,1.0,59,0.00,,,0.00,WeatherCatV1.22B15,2013-12-25 11:35:00,
2013-12-25 06:40:00,17.0,5.2,30.34,NW,312,5.0,7.0,59,0.00,,,0.00,WeatherCatV1.22B15,2013-12-25 11:40:00,
2013-12-25 06:45:00,16.8,4.6,30.34,WNW,286,1.0,4.0,58,0.00,,,0.00,WeatherCatV1.22B15,2013-12-25 11:45:00,
2013-12-25 06:50:00,16.6,4.1,30.35,NW,322,3.0,5.0,57,0.00,,,0.00,WeatherCatV1.22B15,2013-12-25 11:50:00,
2013-12-25 06:55:00,16.4,3.9,30.35,WNW,286,4.0,6.0,57,0.00,,,0.00,WeatherCatV1.22B15,2013-12-25 11:55:00,
2013-12-25 07:00:00,16.2,3.3,30.35,West,267,6.0,6.0,56,0.00,,,0.00,WeatherCatV1.22B15,2013-12-25 12:00:00,
2013-12-25 07:05:00,16.0,3.5,30.36,West,259,3.0,7.0,57,0.00,,,0.00,WeatherCatV1.22B15,2013-12-25 12:05:00,
2013-12-25 07:10:00,15.9,3.4,30.36,West,269,0.0,3.0,57,0.00,,,0.00,WeatherCatV1.22B15,2013-12-25 12:10:00,
2013-12-25 07:15:00,15.7,3.6,30.36,NNW,341,4.0,4.0,58,0.00,,,0.00,WeatherCatV1.22B15,2013-12-25 12:15:00,
2013-12-25 07:20:00,15.6,3.5,30.36,WNW,292,0.0,2.0,58,0.00,,,0.00,WeatherCatV1.22B15,2013-12-25 12:20:00,
2013-12-25 07:25:00,15.5,3.4,30.36,WNW,297,3.0,4.0,58,0.00,,,0.00,WeatherCatV1.22B15,2013-12-25 12:25:00,
2013-12-25 07:30:00,15.5,3.4,30.36,West,259,0.0,3.0,58,0.00,,,0.00,WeatherCatV1.22B15,2013-12-25 12:30:00,
2013-12-25 07:35:00,15.4,3.7,30.36,NW,304,1.0,4.0,59,0.00,,,0.00,WeatherCatV1.22B15,2013-12-25 12:35:00,
2013-12-25 07:40:00,15.4,4.0,30.37,WNW,286,2.0,5.0,60,0.00,,,0.00,WeatherCatV1.22B15,2013-12-25 12:40:00,
2013-12-25 07:45:00,15.3,3.6,30.37,WSW,249,4.0,9.0,59,0.00,,,0.00,WeatherCatV1.22B15,2013-12-25 12:45:00,
2013-12-25 07:50:00,15.1,3.0,30.37,WNW,285,0.0,4.0,58,0.00,,,0.00,WeatherCatV1.22B15,2013-12-25 12:50:00,
2013-12-25 07:55:00,15.0,3.3,30.38,West,269,5.0,6.0,59,0.00,,,0.00,WeatherCatV1.22B15,2013-12-25 12:55:00,
2013-12-25 08:00:00,15.1,4.1,30.38,SW,216,2.0,4.0,61,0.00,,,0.00,WeatherCatV1.22B15,2013-12-25 13:00:00,
2013-12-25 08:05:00,15.2,3.5,30.38,West,273,1.0,3.0,59,0.00,,,0.00,WeatherCatV1.22B15,2013-12-25 13:05:00,
2013-12-25 08:10:00,15.1,3.4,30.38,NW,311,0.0,9.0,59,0.00,,,0.00,WeatherCatV1.22B15,2013-12-25 13:10:00,
2013-12-25 08:15:00,15.0,3.3,30.38,NW,305,7.0,9.0,59,0.00,,,0.00,WeatherCatV1.22B15,2013-12-25 13:15:00,
2013-12-25 08:20:00,15.0,3.7,30.38,WNW,283,2.0,5.0,60,0.00,,,0.00,WeatherCatV1.22B15,2013-12-25 13:20:00,
2013-12-25 08:25:00,15.1,3.4,30.38,WNW,294,3.0,7.0,59,0.00,,,0.00,WeatherCatV1.22B15,2013-12-25 13:25:00,
2013-12-25 08:30:00,15.1,3.4,30.38,WSW,257,1.0,7.0,59,0.00,,,0.00,WeatherCatV1.22B15,2013-12-25 13:30:00,
2013-12-25 08:35:00,15.2,3.5,30.39,West,275,0.0,4.0,59,0.00,,,0.00,WeatherCatV1.22B15,2013-12-25 13:35:00,
2013-12-25 08:40:00,15.4,4.0,30.39,ESE,121,1.0,4.0,60,0.00,,,0.00,WeatherCatV1.22B15,2013-12-25 13:40:00,
2013-12-25 08:45:00,15.6,3.9,30.39,West,281,1.0,5.0,59,0.00,,,0.00,WeatherCatV1.22B15,2013-12-25 13:45:00,
2013-12-25 08:50:00,15.6,3.5,30.39,WNW,290,3.0,4.0,58,0.00,,,0.00,WeatherCatV1.22B15,2013-12-25 13:50:00,
2013-12-25 08:55:00,15.9,3.8,30.40,NW,314,1.0,4.0,58,0.00,,,0.00,WeatherCatV1.22B15,2013-12-25 13:55:00,
2013-12-25 09:00:00,15.9,3.4,30.40,West,263,1.0,4.0,57,0.00,,,0.00,WeatherCatV1.22B15,2013-12-25 14:00:00,
2013-12-25 09:05:00,15.9,3.4,30.40,SSW,204,0.0,6.0,57,0.00,,,0.00,WeatherCatV1.22B15,2013-12-25 14:05:00,
2013-12-25 09:10:00,16.1,3.6,30.41,West,278,0.0,5.0,57,0.00,,,0.00,WeatherCatV1.22B15,2013-12-25 14:10:00,
2013-12-25 09:15:00,16.1,3.6,30.41,NW,314,0.0,4.0,57,0.00,,,0.00,WeatherCatV1.22B15,2013-12-25 14:15:00,
2013-12-25 09:20:00,16.2,3.7,30.41,WNW,298,1.0,6.0,57,0.00,,,0.00,WeatherCatV1.22B15,2013-12-25 14:20:00,
2013-12-25 09:25:00,16.3,4.2,30.41,West,269,2.0,4.0,58,0.00,,,0.00,WeatherCatV1.22B15,2013-12-25 14:25:00,
2013-12-25 09:30:00,16.4,4.2,30.41,WNW,296,0.0,6.0,58,0.00,,,0.00,WeatherCatV1.22B15,2013-12-25 14:30:00,
2013-12-25 09:35:00,16.6,3.7,30.41,NW,306,0.0,4.0,56,0.00,,,0.00,WeatherCatV1.22B15,2013-12-25 14:35:00,
2013-12-25 09:40:00,16.9,4.0,30.41,SW,233,7.0,7.0,56,0.00,,,0.00,WeatherCatV1.22B15,2013-12-25 14:40:00,
2013-12-25 09:45:00,16.8,3.5,30.42,West,270,0.0,3.0,55,0.00,,,0.00,WeatherCatV1.22B15,2013-12-25 14:45:00,
2013-12-25 09:50:00,17.1,4.1,30.42,West,275,0.0,1.0,56,0.00,,,0.00,WeatherCatV1.22B15,2013-12-25 14:50:00,
2013-12-25 09:55:00,17.6,4.2,30.42,SE,129,2.0,5.0,55,0.00,,,0.00,WeatherCatV1.22B15,2013-12-25 14:55:00,
2013-12-25 10:00:00,17.7,3.5,30.42,WNW,292,0.0,7.0,53,0.00,,,0.00,WeatherCatV1.22B15,2013-12-25 15:00:00,
2013-12-25 10:05:00,17.5,3.3,30.42,West,262,2.0,7.0,53,0.00,,,0.00,WeatherCatV1.22B15,2013-12-25 15:05:00,
2013-12-25 10:10:00,17.3,2.7,30.42,West,269,6.0,7.0,52,0.00,,,0.00,WeatherCatV1.22B15,2013-12-25 15:10:00,
2013-12-25 10:15:00,17.0,2.9,30.42,NW,304,0.0,6.0,53,0.00,,,0.00,WeatherCatV1.22B15,2013-12-25 15:15:00,
2013-12-25 10:20:00,17.3,3.5,30.42,NNW,327,0.0,2.0,54,0.00,,,0.00,WeatherCatV1.22B15,2013-12-25 15:20:00,
2013-12-25 10:25:00,18.0,4.2,30.42,WSW,254,3.0,4.0,54,0.00,,,0.00,WeatherCatV1.22B15,2013-12-25 15:25:00,
2013-12-25 10:30:00,18.1,3.5,30.42,East,96,2.0,9.0,52,0.00,,,0.00,WeatherCatV1.22B15,2013-12-25 15:30:00,
2013-12-25 10:35:00,18.2,3.2,30.42,NNE,12,0.0,3.0,51,0.00,,,0.00,WeatherCatV1.22B15,2013-12-25 15:35:00,
2013-12-25 10:40:00,18.5,3.4,30.42,North,7,4.0,6.0,51,0.00,,,0.00,WeatherCatV1.22B15,2013-12-25 15:40:00,
2013-12-25 10:45:00,18.3,2.8,30.42,SE,130,2.0,7.0,50,0.00,,,0.00,WeatherCatV1.22B15,2013-12-25 15:45:00,
2013-12-25 10:50:00,18.2,3.2,30.43,NW,315,0.0,4.0,51,0.00,,,0.00,WeatherCatV1.22B15,2013-12-25 15:50:00,
2013-12-25 10:55:00,18.2,2.7,30.42,North,7,2.0,5.0,50,0.00,,,0.00,WeatherCatV1.22B15,2013-12-25 15:55:00,
2013-12-25 11:00:00,18.5,3.0,30.42,North,11,1.0,3.0,50,0.00,,,0.00,WeatherCatV1.22B15,2013-12-25 16:00:00,
2013-12-25 11:05:00,18.7,3.2,30.42,NW,319,5.0,6.0,50,0.00,,,0.00,WeatherCatV1.22B15,2013-12-25 16:05:00,
2013-12-25 11:10:00,18.5,2.6,30.42,NW,310,3.0,4.0,49,0.00,,,0.00,WeatherCatV1.22B15,2013-12-25 16:10:00,
2013-12-25 11:15:00,18.8,3.3,30.41,NNW,327,1.0,2.0,50,0.00,,,0.00,WeatherCatV1.22B15,2013-12-25 16:15:00,
2013-12-25 11:20:00,18.7,2.8,30.41,NNE,23,0.0,3.0,49,0.00,,,0.00,WeatherCatV1.22B15,2013-12-25 16:20:00,
2013-12-25 11:25:00,18.8,2.4,30.41,SW,236,4.0,5.0,48,0.00,,,0.00,WeatherCatV1.22B15,2013-12-25 16:25:00,
2013-12-25 11:30:00,18.5,2.1,30.41,WSW,256,0.0,1.0,48,0.00,,,0.00,WeatherCatV1.22B15,2013-12-25 16:30:00,
2013-12-25 11:35:00,18.6,2.2,30.40,SSW,196,0.0,3.0,48,0.00,,,0.00,WeatherCatV1.22B15,2013-12-25 16:35:00,
2013-12-25 11:40:00,18.6,2.7,30.40,NW,305,0.0,3.0,49,0.00,,,0.00,WeatherCatV1.22B15,2013-12-25 16:40:00,
2013-12-25 11:45:00,18.6,1.8,30.40,NNW,338,0.0,3.0,47,0.00,,,0.00,WeatherCatV1.22B15,2013-12-25 16:45:00,
2013-12-25 11:50:00,18.8,2.4,30.40,North,7,0.0,3.0,48,0.00,,,0.00,WeatherCatV1.22B15,2013-12-25 16:50:00,
2013-12-25 11:55:00,19.3,2.9,30.41,NW,304,0.0,3.0,48,0.00,,,0.00,WeatherCatV1.22B15,2013-12-25 16:55:00,
2013-12-25 12:00:00,19.4,2.5,30.41,West,278,1.0,1.0,47,0.00,,,0.00,WeatherCatV1.22B15,2013-12-25 17:00:00,
2013-12-25 12:05:00,19.8,2.9,30.41,NW,323,2.0,5.0,47,0.00,,,0.00,WeatherCatV1.22B15,2013-12-25 17:05:00,
2013-12-25 12:10:00,19.8,2.4,30.41,West,265,0.0,3.0,46,0.00,,,0.00,WeatherCatV1.22B15,2013-12-25 17:10:00,
2013-12-25 12:15:00,19.6,1.8,30.41,NW,322,0.0,2.0,45,0.00,,,0.00,WeatherCatV1.22B15,2013-12-25 17:15:00,
2013-12-25 12:20:00,19.9,2.5,30.41,NNE,17,0.0,4.0,46,0.00,,,0.00,WeatherCatV1.22B15,2013-12-25 17:20:00,
2013-12-25 12:25:00,19.9,2.0,30.41,West,259,1.0,2.0,45,0.00,,,0.00,WeatherCatV1.22B15,2013-12-25 17:25:00,
2013-12-25 12:30:00,19.8,1.5,30.41,SSW,199,1.0,5.0,44,0.00,,,0.00,WeatherCatV1.22B15,2013-12-25 17:30:00,
2013-12-25 12:35:00,19.7,2.8,30.41,NW,322,2.0,4.0,47,0.00,,,0.00,WeatherCatV1.22B15,2013-12-25 17:35:00,
2013-12-25 12:40:00,20.0,3.0,30.41,WNW,289,0.0,2.0,47,0.00,,,0.00,WeatherCatV1.22B15,2013-12-25 17:40:00,
2013-12-25 12:45:00,20.4,2.5,30.41,NW,317,0.0,1.0,45,0.00,,,0.00,WeatherCatV1.22B15,2013-12-25 17:45:00,
2013-12-25 12:50:00,20.6,2.7,30.42,NW,313,0.0,6.0,45,0.00,,,0.00,WeatherCatV1.22B15,2013-12-25 17:50:00,
2013-12-25 12:55:00,20.8,2.4,30.42,NW,322,0.0,1.0,44,0.00,,,0.00,WeatherCatV1.22B15,2013-12-25 17:55:00,
2013-12-25 13:00:00,21.0,3.0,30.42,WSW,251,0.0,2.0,45,0.00,,,0.00,WeatherCatV1.22B15,2013-12-25 18:00:00,
2013-12-25 13:05:00,21.3,3.8,30.42,NW,316,3.0,4.0,46,0.00,,,0.00,WeatherCatV1.22B15,2013-12-25 18:05:00,
2013-12-25 13:10:00,21.6,2.6,30.42,SW,219,0.0,2.0,43,0.00,,,0.00,WeatherCatV1.22B15,2013-12-25 18:10:00,
2013-12-25 13:15:00,21.2,2.7,30.43,West,267,3.0,4.0,44,0.00,,,0.00,WeatherCatV1.22B15,2013-12-25 18:15:00,
2013-12-25 13:20:00,20.4,2.0,30.42,WSW,250,0.0,0.0,44,0.00,,,0.00,WeatherCatV1.22B15,2013-12-25 18:20:00,
2013-12-25 13:25:00,21.1,4.5,30.42,WNW,292,0.0,2.0,48,0.00,,,0.00,WeatherCatV1.22B15,2013-12-25 18:25:00,
2013-12-25 13:30:00,21.8,3.8,30.41,ENE,71,0.0,0.0,45,0.00,,,0.00,WeatherCatV1.22B15,2013-12-25 18:30:00,
2013-12-25 13:35:00,22.1,4.0,30.41,NNE,32,2.0,3.0,45,0.00,,,0.00,WeatherCatV1.22B15,2013-12-25 18:35:00,
2013-12-25 13:40:00,22.0,3.5,30.41,NNW,336,0.0,3.0,44,0.00,,,0.00,WeatherCatV1.22B15,2013-12-25 18:40:00,
2013-12-25 13:45:00,21.8,3.8,30.42,North,350,1.0,4.0,45,0.00,,,0.00,WeatherCatV1.22B15,2013-12-25 18:45:00,
2013-12-25 13:50:00,21.9,3.4,30.42,NE,34,0.0,0.0,44,0.00,,,0.00,WeatherCatV1.22B15,2013-12-25 18:50:00,
2013-12-25 13:55:00,22.1,3.5,30.42,NNE,17,0.0,2.0,44,0.00,,,0.00,WeatherCatV1.22B15,2013-12-25 18:55:00,
2013-12-25 14:00:00,22.2,3.6,30.42,NNE,29,3.0,6.0,44,0.00,,,0.00,WeatherCatV1.22B15,2013-12-25 19:00:00,
2013-12-25 14:05:00,22.1,3.5,30.42,NE,38,1.0,4.0,44,0.00,,,0.00,WeatherCatV1.22B15,2013-12-25 19:05:00,
2013-12-25 14:10:00,22.1,3.5,30.42,NE,38,0.0,1.0,44,0.00,,,0.00,WeatherCatV1.22B15,2013-12-25 19:10:00,
2013-12-25 14:15:00,21.8,3.3,30.42,NNW,329,0.0,1.0,44,0.00,,,0.00,WeatherCatV1.22B15,2013-12-25 19:15:00,
2013-12-25 14:20:00,21.8,3.8,30.43,North,7,0.0,0.0,45,0.00,,,0.00,WeatherCatV1.22B15,2013-12-25 19:20:00,
2013-12-25 14:25:00,21.6,3.1,30.43,NW,321,2.0,2.0,44,0.00,,,0.00,WeatherCatV1.22B15,2013-12-25 19:25:00,
2013-12-25 14:30:00,21.5,3.0,30.43,North,2,0.0,1.0,44,0.00,,,0.00,WeatherCatV1.22B15,2013-12-25 19:30:00,
2013-12-25 14:35:00,21.4,3.4,30.43,NNW,347,1.0,2.0,45,0.00,,,0.00,WeatherCatV1.22B15,2013-12-25 19:35:00,
2013-12-25 14:40:00,21.3,3.3,30.43,SW,236,0.0,3.0,45,0.00,,,0.00,WeatherCatV1.22B15,2013-12-25 19:40:00,
2013-12-25 14:44:00,21.3,2.8,30.43,West,268,0.0,3.0,44,0.00,,,0.00,WeatherCatV1.22B15,2013-12-25 19:44:00,
2013-12-25 14:49:00,21.1,3.6,30.44,West,267,0.0,0.0,46,0.00,,,0.00,WeatherCatV1.22B15,2013-12-25 19:49:00,
2013-12-25 14:54:00,21.1,3.6,30.44,West,267,0.0,0.0,46,0.00,,,0.00,WeatherCatV1.22B15,2013-12-25 19:54:00,
2013-12-25 14:59:00,21.1,3.1,30.44,West,266,0.0,1.0,45,0.00,,,0.00,WeatherCatV1.22B15,2013-12-25 19:59:00,
2013-12-25 15:04:00,21.0,3.5,30.45,West,266,0.0,1.0,46,0.00,,,0.00,WeatherCatV1.22B15,2013-12-25 20:04:00,
2013-12-25 15:09:00,20.9,2.9,30.44,West,266,0.0,0.0,45,0.00,,,0.00,WeatherCatV1.22B15,2013-12-25 20:09:00,
2013-12-25 15:14:00,20.9,2.9,30.45,West,266,0.0,0.0,45,0.00,,,0.00,WeatherCatV1.22B15,2013-12-25 20:14:00,
2013-12-25 15:19:00,21.0,3.5,30.45,West,266,0.0,0.0,46,0.00,,,0.00,WeatherCatV1.22B15,2013-12-25 20:19:00,
2013-12-25 15:24:00,21.1,4.1,30.45,North,349,0.0,3.0,47,0.00,,,0.00,WeatherCatV1.22B15,2013-12-25 20:24:00,
2013-12-25 15:29:00,21.1,4.1,30.45,NNE,17,0.0,0.0,47,0.00,,,0.00,WeatherCatV1.22B15,2013-12-25 20:29:00,
2013-12-25 15:34:00,21.0,4.9,30.46,NNE,17,0.0,0.0,49,0.00,,,0.00,WeatherCatV1.22B15,2013-12-25 20:34:00,
2013-12-25 15:39:00,21.0,4.9,30.45,NNE,17,1.0,2.0,49,0.00,,,0.00,WeatherCatV1.22B15,2013-12-25 20:39:00,
2013-12-25 15:44:00,21.1,5.0,30.45,NNE,17,0.0,0.0,49,0.00,,,0.00,WeatherCatV1.22B15,2013-12-25 20:44:00,
2013-12-25 15:49:00,21.0,4.4,30.45,NNE,17,0.0,0.0,48,0.00,,,0.00,WeatherCatV1.22B15,2013-12-25 20:49:00,
2013-12-25 15:54:00,20.9,3.9,30.46,NNE,17,0.0,0.0,47,0.00,,,0.00,WeatherCatV1.22B15,2013-12-25 20:54:00,
2013-12-25 15:59:00,20.8,4.7,30.47,NNE,17,0.0,0.0,49,0.00,,,0.00,WeatherCatV1.22B15,2013-12-25 20:59:00,
2013-12-25 16:04:00,20.9,4.8,30.47,NNE,17,0.0,0.0,49,0.00,,,0.00,WeatherCatV1.22B15,2013-12-25 21:04:00,
2013-12-25 16:09:00,20.9,5.7,30.47,NNE,17,0.0,0.0,51,0.00,,,0.00,WeatherCatV1.22B15,2013-12-25 21:09:00,
2013-12-25 16:14:00,20.9,4.8,30.46,NNE,17,0.0,0.0,49,0.00,,,0.00,WeatherCatV1.22B15,2013-12-25 21:14:00,
2013-12-25 16:19:00,20.8,5.1,30.47,NNE,17,0.0,0.0,50,0.00,,,0.00,WeatherCatV1.22B15,2013-12-25 21:19:00,
2013-12-25 16:24:00,20.8,5.1,30.47,NNE,17,0.0,0.0,50,0.00,,,0.00,WeatherCatV1.22B15,2013-12-25 21:24:00,
2013-12-25 16:29:00,20.7,5.0,30.47,NNE,17,0.0,0.0,50,0.00,,,0.00,WeatherCatV1.22B15,2013-12-25 21:29:00,
2013-12-25 16:34:00,20.7,5.5,30.47,NNE,17,0.0,0.0,51,0.00,,,0.00,WeatherCatV1.22B15,2013-12-25 21:34:00,
2013-12-25 16:39:00,20.7,5.5,30.47,NNE,17,0.0,1.0,51,0.00,,,0.00,WeatherCatV1.22B15,2013-12-25 21:39:00,
2013-12-25 16:44:00,20.6,5.4,30.47,NNE,17,0.0,0.0,51,0.00,,,0.00,WeatherCatV1.22B15,2013-12-25 21:44:00,
2013-12-25 16:49:00,20.6,5.4,30.48,NNE,17,0.0,0.0,51,0.00,,,0.00,WeatherCatV1.22B15,2013-12-25 21:49:00,
2013-12-25 16:54:00,20.6,5.8,30.47,NNE,17,0.0,0.0,52,0.00,,,0.00,WeatherCatV1.22B15,2013-12-25 21:54:00,
2013-12-25 16:59:00,20.6,5.8,30.47,NNE,17,0.0,0.0,52,0.00,,,0.00,WeatherCatV1.22B15,2013-12-25 21:59:00,
2013-12-25 17:04:00,20.6,5.8,30.47,NNE,17,0.0,0.0,52,0.00,,,0.00,WeatherCatV1.22B15,2013-12-25 22:04:00,
2013-12-25 17:09:00,20.5,6.1,30.47,NNE,17,0.0,0.0,53,0.00,,,0.00,WeatherCatV1.22B15,2013-12-25 22:09:00,
2013-12-25 17:14:00,20.5,5.7,30.48,NNE,17,0.0,0.0,52,0.00,,,0.00,WeatherCatV1.22B15,2013-12-25 22:14:00,
2013-12-25 17:19:00,20.5,6.9,30.48,NNE,17,0.0,0.0,55,0.00,,,0.00,WeatherCatV1.22B15,2013-12-25 22:19:00,
2013-12-25 17:24:00,20.5,6.5,30.48,NNE,17,0.0,0.0,54,0.00,,,0.00,WeatherCatV1.22B15,2013-12-25 22:24:00,
2013-12-25 17:29:00,20.5,5.7,30.48,NNE,17,0.0,1.0,52,0.00,,,0.00,WeatherCatV1.22B15,2013-12-25 22:29:00,
2013-12-25 17:34:00,20.4,5.6,30.49,NNE,17,0.0,0.0,52,0.00,,,0.00,WeatherCatV1.22B15,2013-12-25 22:34:00,
2013-12-25 17:39:00,20.4,5.6,30.49,NNE,17,0.0,1.0,52,0.00,,,0.00,WeatherCatV1.22B15,2013-12-25 22:39:00,
2013-12-25 17:44:00,20.3,5.5,30.49,ENE,72,0.0,0.0,52,0.00,,,0.00,WeatherCatV1.22B15,2013-12-25 22:44:00,
2013-12-25 17:49:00,20.3,5.5,30.48,ENE,72,0.0,1.0,52,0.00,,,0.00,WeatherCatV1.22B15,2013-12-25 22:49:00,
2013-12-25 17:54:00,20.2,5.4,30.49,ENE,72,0.0,0.0,52,0.00,,,0.00,WeatherCatV1.22B15,2013-12-25 22:54:00,
2013-12-25 17:59:00,20.2,5.8,30.48,ENE,72,0.0,1.0,53,0.00,,,0.00,WeatherCatV1.22B15,2013-12-25 22:59:00,
2013-12-25 18:04:00,20.2,6.2,30.49,ENE,72,0.0,0.0,54,0.00,,,0.00,WeatherCatV1.22B15,2013-12-25 23:04:00,
2013-12-25 18:09:00,20.2,5.8,30.49,ENE,76,0.0,1.0,53,0.00,,,0.00,WeatherCatV1.22B15,2013-12-25 23:09:00,
2013-12-25 18:14:00,20.2,5.8,30.48,East,84,0.0,2.0,53,0.00,,,0.00,WeatherCatV1.22B15,2013-12-25 23:14:00,
2013-12-25 18:19:00,20.2,6.2,30.49,East,96,0.0,1.0,54,0.00,,,0.00,WeatherCatV1.22B15,2013-12-25 23:19:00,
2013-12-25 18:24:00,20.2,6.2,30.49,East,96,0.0,2.0,54,0.00,,,0.00,WeatherCatV1.22B15,2013-12-25 23:24:00,
2013-12-25 18:29:00,20.1,6.2,30.49,East,96,0.0,0.0,54,0.00,,,0.00,WeatherCatV1.22B15,2013-12-25 23:29:00,
2013-12-25 18:34:00,20.1,6.2,30.49,ESE,115,0.0,0.0,54,0.00,,,0.00,WeatherCatV1.22B15,2013-12-25 23:34:00,
2013-12-25 18:39:00,20.0,5.7,30.49,ESE,115,0.0,0.0,53,0.00,,,0.00,WeatherCatV1.22B15,2013-12-25 23:39:00,
2013-12-25 18:44:00,19.9,6.0,30.49,ESE,115,0.0,1.0,54,0.00,,,0.00,WeatherCatV1.22B15,2013-12-25 23:44:00,
2013-12-25 18:49:00,19.9,6.0,30.49,ESE,121,0.0,0.0,54,0.00,,,0.00,WeatherCatV1.22B15,2013-12-25 23:49:00,
2013-12-25 18:54:00,19.8,6.3,30.49,ESE,121,0.0,0.0,55,0.00,,,0.00,WeatherCatV1.22B15,2013-12-25 23:54:00,
2013-12-25 18:59:00,19.7,6.2,30.49,ESE,121,0.0,0.0,55,0.00,,,0.00,WeatherCatV1.22B15,2013-12-25 23:59:00,
2013-12-25 19:04:00,19.6,6.5,30.49,ESE,123,0.0,0.0,56,0.00,,,0.00,WeatherCatV1.22B15,2013-12-26 00:04:00,
2013-12-25 19:09:00,19.5,6.8,30.49,ESE,123,0.0,0.0,57,0.00,,,0.00,WeatherCatV1.22B15,2013-12-26 00:09:00,
2013-12-25 19:14:00,19.4,7.4,30.49,ESE,123,0.0,0.0,59,0.00,,,0.00,WeatherCatV1.22B15,2013-12-26 00:14:00,
2013-12-25 19:19:00,19.3,7.7,30.48,ESE,123,0.0,0.0,60,0.00,,,0.00,WeatherCatV1.22B15,2013-12-26 00:19:00,
2013-12-25 19:24:00,19.2,8.0,30.48,ESE,123,0.0,0.0,61,0.00,,,0.00,WeatherCatV1.22B15,2013-12-26 00:24:00,
2013-12-25 19:29:00,19.0,7.8,30.49,ESE,123,0.0,0.0,61,0.00,,,0.00,WeatherCatV1.22B15,2013-12-26 00:29:00,
2013-12-25 19:34:00,18.9,7.7,30.49,ESE,123,0.0,0.0,61,0.00,,,0.00,WeatherCatV1.22B15,2013-12-26 00:34:00,
2013-12-25 19:39:00,18.6,7.4,30.49,ESE,123,0.0,0.0,61,0.00,,,0.00,WeatherCatV1.22B15,2013-12-26 00:39:00,
2013-12-25 19:44:00,18.5,7.7,30.49,ESE,123,0.0,0.0,62,0.00,,,0.00,WeatherCatV1.22B15,2013-12-26 00:44:00,
2013-12-25 19:49:00,18.3,7.5,30.49,ESE,123,0.0,0.0,62,0.00,,,0.00,WeatherCatV1.22B15,2013-12-26 00:49:00,
2013-12-25 19:54:00,18.2,7.4,30.49,ESE,123,0.0,0.0,62,0.00,,,0.00,WeatherCatV1.22B15,2013-12-26 00:54:00,
2013-12-25 19:59:00,18.1,7.3,30.49,ESE,123,0.0,0.0,62,0.00,,,0.00,WeatherCatV1.22B15,2013-12-26 00:59:00,
2013-12-25 20:04:00,18.1,7.7,30.49,ESE,123,0.0,0.0,63,0.00,,,0.00,WeatherCatV1.22B15,2013-12-26 01:04:00,
2013-12-25 20:09:00,17.9,8.1,30.49,ESE,123,0.0,0.0,65,0.00,,,0.00,WeatherCatV1.22B15,2013-12-26 01:09:00,
2013-12-25 20:14:00,17.8,8.4,30.49,ESE,123,0.0,0.0,66,0.00,,,0.00,WeatherCatV1.22B15,2013-12-26 01:14:00,
2013-12-25 20:19:00,17.7,9.0,30.49,ESE,123,0.0,0.0,68,0.00,,,0.00,WeatherCatV1.22B15,2013-12-26 01:19:00,
2013-12-25 20:24:00,17.6,9.2,30.49,ESE,123,0.0,0.0,69,0.00,,,0.00,WeatherCatV1.22B15,2013-12-26 01:24:00,
2013-12-25 20:29:00,17.6,9.2,30.48,ESE,123,0.0,0.0,69,0.00,,,0.00,WeatherCatV1.22B15,2013-12-26 01:29:00,
2013-12-25 20:34:00,17.4,8.7,30.49,ESE,123,0.0,0.0,68,0.00,,,0.00,WeatherCatV1.22B15,2013-12-26 01:34:00,
2013-12-25 20:39:00,17.4,8.4,30.48,ESE,123,0.0,0.0,67,0.00,,,0.00,WeatherCatV1.22B15,2013-12-26 01:39:00,
2013-12-25 20:44:00,17.3,8.6,30.48,ESE,123,0.0,0.0,68,0.00,,,0.00,WeatherCatV1.22B15,2013-12-26 01:44:00,
2013-12-25 20:49:00,17.2,8.5,30.49,ESE,123,0.0,0.0,68,0.00,,,0.00,WeatherCatV1.22B15,2013-12-26 01:49:00,
2013-12-25 20:54:00,17.2,8.5,30.48,ESE,123,0.0,0.0,68,0.00,,,0.00,WeatherCatV1.22B15,2013-12-26 01:54:00,
2013-12-25 20:59:00,17.1,8.4,30.49,ESE,123,0.0,1.0,68,0.00,,,0.00,WeatherCatV1.22B15,2013-12-26 01:59:00,
2013-12-25 21:04:00,17.1,8.4,30.49,ESE,123,0.0,0.0,68,0.00,,,0.00,WeatherCatV1.22B15,2013-12-26 02:04:00,
2013-12-25 21:09:00,17.0,8.6,30.49,ESE,123,0.0,0.0,69,0.00,,,0.00,WeatherCatV1.22B15,2013-12-26 02:09:00,
2013-12-25 21:14:00,17.0,8.9,30.49,ESE,123,0.0,0.0,70,0.00,,,0.00,WeatherCatV1.22B15,2013-12-26 02:14:00,
2013-12-25 21:19:00,16.9,8.8,30.48,ESE,123,0.0,0.0,70,0.00,,,0.00,WeatherCatV1.22B15,2013-12-26 02:19:00,
2013-12-25 21:24:00,16.9,9.1,30.48,ESE,123,0.0,0.0,71,0.00,,,0.00,WeatherCatV1.22B15,2013-12-26 02:24:00,
2013-12-25 21:29:00,16.7,9.0,30.48,ESE,123,0.0,0.0,71,0.00,,,0.00,WeatherCatV1.22B15,2013-12-26 02:29:00,
2013-12-25 21:34:00,16.7,9.0,30.48,ESE,123,0.0,0.0,71,0.00,,,0.00,WeatherCatV1.22B15,2013-12-26 02:34:00,
2013-12-25 21:39:00,16.7,9.6,30.48,ESE,123,0.0,0.0,73,0.00,,,0.00,WeatherCatV1.22B15,2013-12-26 02:39:00,
2013-12-25 21:44:00,16.7,9.6,30.48,ESE,123,0.0,0.0,73,0.00,,,0.00,WeatherCatV1.22B15,2013-12-26 02:44:00,
2013-12-25 21:49:00,16.8,9.7,30.47,ESE,123,0.0,0.0,73,0.00,,,0.00,WeatherCatV1.22B15,2013-12-26 02:49:00,
2013-12-25 21:54:00,16.7,9.3,30.47,ESE,123,0.0,0.0,72,0.00,,,0.00,WeatherCatV1.22B15,2013-12-26 02:54:00,
2013-12-25 21:59:00,16.8,9.7,30.47,ESE,123,0.0,0.0,73,0.00,,,0.00,WeatherCatV1.22B15,2013-12-26 02:59:00,
2013-12-25 22:04:00,16.8,9.7,30.47,ESE,123,0.0,0.0,73,0.00,,,0.00,WeatherCatV1.22B15,2013-12-26 03:04:00,
2013-12-25 22:09:00,16.9,9.8,30.46,ESE,123,0.0,0.0,73,0.00,,,0.00,WeatherCatV1.22B15,2013-12-26 03:09:00,
2013-12-25 22:14:00,16.9,9.8,30.46,ESE,123,0.0,0.0,73,0.00,,,0.00,WeatherCatV1.22B15,2013-12-26 03:14:00,
2013-12-25 22:19:00,16.8,9.7,30.47,ESE,123,0.0,0.0,73,0.00,,,0.00,WeatherCatV1.22B15,2013-12-26 03:19:00,
2013-12-25 22:24:00,16.7,9.6,30.47,ESE,123,0.0,0.0,73,0.00,,,0.00,WeatherCatV1.22B15,2013-12-26 03:24:00,
2013-12-25 22:29:00,16.7,9.6,30.47,ESE,123,0.0,0.0,73,0.00,,,0.00,WeatherCatV1.22B15,2013-12-26 03:29:00,
2013-12-25 22:34:00,16.6,9.8,30.47,ESE,123,0.0,0.0,74,0.00,,,0.00,WeatherCatV1.22B15,2013-12-26 03:34:00,
2013-12-25 22:39:00,16.6,9.8,30.47,ESE,123,0.0,0.0,74,0.00,,,0.00,WeatherCatV1.22B15,2013-12-26 03:39:00,
2013-12-25 22:44:00,16.6,9.8,30.47,ESE,123,0.0,0.0,74,0.00,,,0.00,WeatherCatV1.22B15,2013-12-26 03:44:00,
2013-12-25 22:49:00,16.5,9.7,30.46,ESE,123,0.0,0.0,74,0.00,,,0.00,WeatherCatV1.22B15,2013-12-26 03:49:00,
2013-12-25 22:54:00,16.3,9.5,30.46,ESE,123,0.0,0.0,74,0.00,,,0.00,WeatherCatV1.22B15,2013-12-26 03:54:00,
2013-12-25 22:59:00,16.2,9.4,30.46,ESE,123,0.0,0.0,74,0.00,,,0.00,WeatherCatV1.22B15,2013-12-26 03:59:00,
2013-12-25 23:04:00,16.1,9.6,30.46,ESE,123,0.0,0.0,75,0.00,,,0.00,WeatherCatV1.22B15,2013-12-26 04:04:00,
2013-12-25 23:09:00,16.1,10.2,30.46,ESE,123,0.0,0.0,77,0.00,,,0.00,WeatherCatV1.22B15,2013-12-26 04:09:00,
2013-12-25 23:14:00,16.1,9.9,30.45,ESE,123,0.0,0.0,76,0.00,,,0.00,WeatherCatV1.22B15,2013-12-26 04:14:00,
2013-12-25 23:19:00,16.1,9.9,30.45,ESE,123,0.0,0.0,76,0.00,,,0.00,WeatherCatV1.22B15,2013-12-26 04:19:00,
2013-12-25 23:24:00,16.2,10.0,30.45,ESE,123,0.0,0.0,76,0.00,,,0.00,WeatherCatV1.22B15,2013-12-26 04:24:00,
2013-12-25 23:29:00,16.2,10.0,30.45,ESE,123,0.0,0.0,76,0.00,,,0.00,WeatherCatV1.22B15,2013-12-26 04:29:00,
2013-12-25 23:34:00,16.1,9.9,30.45,ESE,123,0.0,0.0,76,0.00,,,0.00,WeatherCatV1.22B15,2013-12-26 04:34:00,
2013-12-25 23:39:00,16.0,9.8,30.44,ESE,123,0.0,0.0,76,0.00,,,0.00,WeatherCatV1.22B15,2013-12-26 04:39:00,
2013-12-25 23:44:00,16.0,9.8,30.45,ESE,123,0.0,0.0,76,0.00,,,0.00,WeatherCatV1.22B15,2013-12-26 04:44:00,
2013-12-25 23:49:00,16.1,9.9,30.45,ESE,123,0.0,0.0,76,0.00,,,0.00,WeatherCatV1.22B15,2013-12-26 04:49:00,
2013-12-25 23:54:00,16.2,10.0,30.45,ESE,123,0.0,0.0,76,0.00,,,0.00,WeatherCatV1.22B15,2013-12-26 04:54:00,
2013-12-25 23:59:00,16.3,10.1,30.45,ESE,123,0.0,0.0,76,0.00,,,0.00,WeatherCatV1.22B15,2013-12-26 04:59:00,